createdAt,value
2022-09-11T00:03:55.151Z,22.70
2022-09-11T00:19:02.185Z,23.00
2022-09-11T00:34:05.238Z,26.00
2022-09-11T00:49:19.116Z,22.40
2022-09-11T01:04:23.595Z,22.80
2022-09-11T01:20:01.203Z,18.70
2022-09-11T01:35:12.928Z,17.90
2022-09-11T01:50:20.896Z,18.30
2022-09-11T02:05:30.494Z,22.90
2022-09-11T02:20:36.576Z,17.00
2022-09-11T02:35:50.203Z,19.90
2022-09-11T02:51:02.926Z,20.40
2022-09-11T03:06:10.699Z,18.50
2022-09-11T03:21:17.146Z,17.20
2022-09-11T03:36:20.963Z,20.20
2022-09-11T03:51:23.994Z,14.70
2022-09-11T04:06:27.663Z,19.80
2022-09-11T04:21:32.017Z,20.80
2022-09-11T04:36:35.867Z,21.50
2022-09-11T04:51:40.783Z,21.00
2022-09-11T05:06:48.602Z,25.10
2022-09-11T05:21:52.681Z,19.90
2022-09-11T05:36:59.985Z,21.80
2022-09-11T05:52:05.336Z,26.80
2022-09-11T06:07:10.226Z,17.80
2022-09-11T06:22:14.383Z,17.80
2022-09-11T06:37:20.792Z,26.40
2022-09-11T06:52:24.437Z,20.50
2022-09-11T07:07:39.589Z,17.10
2022-09-11T07:22:46.073Z,19.00
2022-09-11T07:37:51.010Z,19.10
2022-09-11T07:52:55.562Z,13.40
2022-09-11T08:07:59.049Z,15.10
2022-09-11T08:23:03.327Z,10.10
2022-09-11T08:38:06.996Z,11.50
2022-09-11T08:53:18.942Z,10.90
2022-09-11T09:08:49.976Z,12.80
2022-09-11T09:23:56.247Z,6.10
2022-09-11T09:39:00.885Z,6.10
2022-09-11T09:54:06.583Z,7.60
2022-09-11T10:09:27.411Z,3.20
2022-09-11T10:24:31.007Z,5.00
2022-09-11T10:39:37.476Z,2.70
2022-09-11T10:55:04.084Z,4.50
2022-09-11T11:10:17.626Z,2.20
2022-09-11T11:25:31.305Z,7.10
2022-09-11T11:40:42.183Z,5.00
2022-09-11T11:56:16.133Z,4.10
2022-09-11T12:11:29.456Z,4.30
2022-09-11T12:26:32.825Z,3.50
2022-09-11T12:41:36.400Z,3.20
2022-09-11T12:57:13.269Z,5.30
2022-09-11T13:12:26.136Z,2.40
2022-09-11T13:27:38.044Z,5.70
2022-09-11T13:42:41.647Z,5.60
2022-09-11T13:58:03.396Z,5.30
2022-09-11T14:13:20.838Z,5.80
2022-09-11T14:28:45.175Z,4.50
2022-09-11T14:43:58.979Z,3.70
2022-09-11T14:59:06.612Z,2.80
2022-09-11T15:14:23.297Z,5.10
2022-09-11T15:29:32.787Z,3.40
2022-09-11T15:44:36.817Z,5.80
2022-09-11T15:59:40.309Z,4.90
2022-09-11T16:14:45.171Z,6.10
2022-09-11T16:30:25.957Z,6.90
2022-09-11T16:45:14.152Z,7.10
2022-09-11T17:00:18.150Z,29.00
2022-09-11T17:15:23.684Z,27.80
2022-09-11T17:30:28.145Z,19.40
2022-09-11T17:45:32.352Z,21.80
2022-09-11T18:00:36.702Z,30.60
2022-09-11T18:15:40.790Z,17.10
2022-09-11T18:30:44.610Z,9.90
2022-09-11T18:45:48.398Z,12.80
2022-09-11T19:00:53.222Z,13.60
2022-09-11T19:15:57.848Z,11.70
2022-09-11T19:31:03.080Z,8.00
2022-09-11T19:46:06.492Z,7.30
2022-09-11T20:01:13.366Z,4.60
2022-09-11T20:16:20.627Z,7.40
2022-09-11T20:31:30.713Z,10.60
2022-09-11T20:46:34.470Z,4.10
2022-09-11T21:01:38.098Z,7.60
2022-09-11T21:16:41.438Z,11.90
2022-09-11T21:31:44.867Z,7.80
2022-09-11T21:46:48.098Z,5.50
2022-09-11T22:01:51.218Z,6.40
2022-09-11T22:16:54.218Z,7.50
2022-09-11T22:31:57.500Z,15.30
2022-09-11T22:47:00.963Z,8.90
2022-09-11T23:02:04.105Z,10.30
2022-09-11T23:17:07.088Z,8.10
2022-09-11T23:32:10.312Z,6.40
2022-09-11T23:47:13.748Z,15.30
